Time;durP1;ratioP1;P1;durP2;ratioP2;P2;SDS_P1;SDS_P2;PMS_P1;PMS_P2;Temp;Humidity;BMP_temperature;BMP_pressure;BME280_temperature;BME280_humidity;BME280_pressure;Samples;Min_cycle;Max_cycle;Signal;HPM_P1;HPM_P2
2021/11/20 00:02:28;;;;;;;2.70;1.05;;;21.40;59.00;;;;;;5068119;28;20078;-67
2021/11/20 00:05:14;;;;;;;;;;;21.40;59.00;;;;;;5079931;28;20021;-67
2021/11/20 00:08:21;;;;;;;3.05;0.85;;;21.40;59.10;;;;;;5074313;28;19908;-67
2021/11/20 00:11:27;;;;;;;3.40;0.63;;;21.40;59.10;;;;;;5076976;28;20540;-67
2021/11/20 00:14:33;;;;;;;2.30;0.50;;;21.40;59.20;;;;;;5076471;28;20060;-67
2021/11/20 00:17:39;;;;;;;0.85;0.43;;;21.40;59.20;;;;;;5074405;28;20029;-67
2021/11/20 00:20:53;;;;;;;2.15;0.50;;;21.40;59.20;;;;;;5069333;28;20036;-67
2021/11/20 00:23:59;;;;;;;1.70;0.60;;;21.40;59.10;;;;;;5070845;28;20046;-66
2021/11/20 00:27:05;;;;;;;3.00;0.60;;;21.30;58.90;;;;;;5072823;28;20484;-67
2021/11/20 00:33:20;;;;;;;1.27;0.65;;;21.30;58.60;;;;;;5071283;28;20020;-66
2021/11/20 00:36:26;;;;;;;1.15;0.50;;;21.30;58.40;;;;;;5074799;28;20064;-67
2021/11/20 00:39:32;;;;;;;1.23;0.50;;;21.30;58.20;;;;;;5073147;28;20020;-67
2021/11/20 00:42:38;;;;;;;1.20;0.70;;;21.30;58.00;;;;;;5069366;28;20051;-67
2021/11/20 00:45:44;;;;;;;1.30;0.80;;;21.30;57.80;;;;;;5074132;28;20024;-67
2021/11/20 00:48:50;;;;;;;0.68;0.57;;;21.20;57.50;;;;;;5071839;28;20056;-67
2021/11/20 00:51:56;;;;;;;2.47;0.63;;;21.30;57.60;;;;;;5075235;28;20032;-67
2021/11/20 00:55:02;;;;;;;1.65;0.57;;;21.20;57.50;;;;;;5068547;28;20025;-67
2021/11/20 00:58:08;;;;;;;1.15;0.70;;;21.20;57.40;;;;;;5070436;28;20039;-66
2021/11/20 01:01:21;;;;;;;3.25;1.35;;;21.20;57.40;;;;;;5070857;28;20036;-67
2021/11/20 01:04:27;;;;;;;2.00;1.33;;;21.20;57.40;;;;;;5072616;28;20420;-67
2021/11/20 01:07:33;;;;;;;1.85;0.75;;;21.20;57.40;;;;;;5074394;28;20024;-66
2021/11/20 01:10:39;;;;;;;2.30;0.80;;;21.10;57.40;;;;;;5077247;28;20023;-67
2021/11/20 01:13:46;;;;;;;2.72;0.60;;;21.10;57.50;;;;;;5067484;28;20078;-67
2021/11/20 01:16:52;;;;;;;1.73;0.80;;;21.10;57.60;;;;;;5071584;28;20033;-67
2021/11/20 01:19:59;;;;;;;1.10;0.30;;;21.20;57.60;;;;;;5069047;28;20021;-67
2021/11/20 01:23:05;;;;;;;0.68;0.50;;;21.10;57.60;;;;;;5068705;28;20033;-67
2021/11/20 01:26:11;;;;;;;1.98;0.50;;;21.10;57.60;;;;;;5069542;28;20096;-66
2021/11/20 01:29:17;;;;;;;3.95;0.70;;;21.10;57.60;;;;;;5073734;28;20028;-67
2021/11/20 01:32:23;;;;;;;1.20;0.47;;;21.10;57.50;;;;;;5079952;28;20039;-67
2021/11/20 01:35:29;;;;;;;3.20;0.80;;;21.10;57.50;;;;;;5067626;28;20031;-67
2021/11/20 01:38:35;;;;;;;1.83;0.40;;;21.10;57.50;;;;;;5067132;28;20028;-67
2021/11/20 01:41:41;;;;;;;1.60;0.50;;;21.10;57.60;;;;;;5070392;28;20025;-66
2021/11/20 01:44:53;;;;;;;1.98;0.50;;;21.00;57.60;;;;;;5071604;28;20043;-68
2021/11/20 01:47:45;;;;;;;1.05;0.50;;;21.00;57.80;;;;;;5070974;28;20024;-67
2021/11/20 01:50:51;;;;;;;2.58;0.60;;;21.00;58.00;;;;;;5067338;28;20025;-67
2021/11/20 01:54:02;;;;;;;2.20;0.50;;;20.90;58.00;;;;;;5073353;28;20025;-67
2021/11/20 01:56:54;;;;;;;1.23;1.05;;;20.90;58.40;;;;;;5071902;28;20039;-66
2021/11/20 01:59:43;;;;;;;1.70;0.60;;;20.90;58.50;;;;;;5070700;28;20367;-66
2021/11/20 02:02:45;;;;;;;4.40;0.90;;;20.90;58.70;;;;;;5068182;28;20039;-67
2021/11/20 02:05:57;;;;;;;1.10;0.55;;;20.90;58.70;;;;;;5069267;28;20044;-67
2021/11/20 02:08:52;;;;;;;2.33;0.68;;;20.90;58.90;;;;;;5072475;28;20023;-67
2021/11/20 02:12:07;;;;;;;2.50;0.77;;;20.90;58.90;;;;;;5071773;28;20547;-67
2021/11/20 02:15:13;;;;;;;1.38;0.80;;;20.90;59.00;;;;;;5070500;28;20032;-66
2021/11/20 02:18:19;;;;;;;2.45;0.98;;;20.90;59.10;;;;;;5071525;28;20048;-67
2021/11/20 02:21:40;;;;;;;5.10;1.05;;;20.90;59.10;;;;;;5067305;28;20058;-66
2021/11/20 02:24:06;;;;;;;2.28;0.85;;;20.90;59.20;;;;;;5072539;28;20044;-67
2021/11/20 02:26:32;;;;;;;2.72;0.93;;;20.80;59.20;;;;;;5069512;28;20091;-66
2021/11/20 02:29:38;;;;;;;3.03;0.68;;;20.80;59.20;;;;;;5072111;28;20032;-66
2021/11/20 02:32:44;;;;;;;3.53;0.70;;;20.80;59.40;;;;;;5075614;28;20025;-67
2021/11/20 02:35:53;;;;;;;3.10;0.63;;;20.80;59.40;;;;;;5070994;28;20032;-67
2021/11/20 02:39:05;;;;;;;1.42;1.30;;;20.80;59.50;;;;;;5070409;28;20067;-67
2021/11/20 02:42:11;;;;;;;10.10;1.58;;;20.80;59.60;;;;;;5070823;28;20074;-67
2021/11/20 02:45:17;;;;;;;17.25;7.85;;;20.80;59.60;;;;;;5072375;28;20028;-67
2021/11/20 02:48:23;;;;;;;10.30;6.78;;;20.70;59.70;;;;;;5072094;28;20020;-69
2021/11/20 02:51:29;;;;;;;10.02;3.90;;;20.70;59.70;;;;;;5071470;28;20613;-67
2021/11/20 02:54:35;;;;;;;4.47;3.10;;;20.70;59.70;;;;;;5074474;28;20024;-67
2021/11/20 02:57:34;;;;;;;5.53;2.50;;;20.70;59.70;;;;;;5070830;28;20083;-67
2021/11/20 03:00:40;;;;;;;6.03;1.52;;;20.70;59.70;;;;;;5075296;28;20021;-67
2021/11/20 03:03:46;;;;;;;5.47;1.75;;;20.70;59.70;;;;;;5073580;28;20107;-67
2021/11/20 03:06:53;;;;;;;14.63;1.83;;;20.60;59.70;;;;;;5071718;28;20031;-67
2021/11/20 03:09:59;;;;;;;3.92;0.90;;;20.60;59.70;;;;;;5068684;28;20491;-67
2021/11/20 03:13:05;;;;;;;3.85;1.13;;;20.60;59.70;;;;;;5070010;28;20029;-67
2021/11/20 03:16:11;;;;;;;5.45;1.15;;;20.60;59.70;;;;;;5071160;28;20063;-68
2021/11/20 03:19:17;;;;;;;16.95;1.83;;;20.60;59.70;;;;;;5070680;28;20470;-67
2021/11/20 03:22:23;;;;;;;3.17;0.75;;;20.60;59.80;;;;;;5066426;28;20866;-67
2021/11/20 03:25:30;;;;;;;8.38;1.17;;;20.60;59.90;;;;;;5071815;28;20063;-66
2021/11/20 03:28:36;;;;;;;5.18;1.05;;;20.60;59.90;;;;;;5069003;28;20484;-67
2021/11/20 03:31:03;;;;;;;5.78;1.15;;;20.60;59.90;;;;;;5070823;28;20052;-66
2021/11/20 03:33:30;;;;;;;4.72;1.88;;;20.50;59.80;;;;;;5070126;28;20020;-66
2021/11/20 03:35:57;;;;;;;4.10;2.10;;;20.50;59.70;;;;;;5068789;28;20028;-66
2021/11/20 03:38:24;;;;;;;5.43;1.63;;;20.50;59.70;;;;;;5067976;28;20083;-67
2021/11/20 03:40:58;;;;;;;5.13;1.50;;;20.50;59.70;;;;;;5069303;28;20040;-67
2021/11/20 03:43:29;;;;;;;6.43;1.83;;;20.50;59.60;;;;;;5076334;28;20020;-66
2021/11/20 03:46:17;;;;;;;7.50;1.77;;;20.50;59.60;;;;;;5071707;28;20041;-67
2021/11/20 03:49:02;;;;;;;5.10;1.33;;;20.50;59.60;;;;;;5068029;28;20024;-66
2021/11/20 03:51:29;;;;;;;12.00;2.37;;;20.50;59.60;;;;;;5073493;28;20060;-66
2021/11/20 03:54:00;;;;;;;7.45;1.63;;;20.50;59.60;;;;;;5075303;28;20774;-66
2021/11/20 03:56:29;;;;;;;3.63;1.20;;;20.50;59.60;;;;;;5072928;28;20041;-66
2021/11/20 03:59:01;;;;;;;9.20;1.30;;;20.40;59.60;;;;;;5072418;28;20434;-66
2021/11/20 04:01:29;;;;;;;5.32;1.05;;;20.40;59.70;;;;;;5069956;28;20119;-66
2021/11/20 04:03:56;;;;;;;2.97;0.80;;;20.50;59.80;;;;;;5073708;28;20017;-66
2021/11/20 04:06:23;;;;;;;4.15;0.90;;;20.40;59.80;;;;;;5072559;28;20411;-66
2021/11/20 04:08:52;;;;;;;4.72;1.30;;;20.40;59.80;;;;;;5074101;28;20085;-66
2021/11/20 04:11:25;;;;;;;2.75;0.90;;;20.40;59.80;;;;;;5073433;28;20052;-66
2021/11/20 04:13:55;;;;;;;4.45;1.00;;;20.40;60.00;;;;;;5070535;28;20039;-67
2021/11/20 04:16:24;;;;;;;3.20;0.80;;;20.40;60.10;;;;;;5071225;28;20032;-66
2021/11/20 04:18:59;;;;;;;2.60;1.20;;;20.40;60.10;;;;;;5074086;28;20487;-67
2021/11/20 04:21:40;;;;;;;2.40;0.90;;;20.40;60.10;;;;;;5070333;28;20023;-67
2021/11/20 04:24:24;;;;;;;7.20;1.17;;;20.40;60.10;;;;;;5069371;28;20033;-67
2021/11/20 04:27:12;;;;;;;4.67;1.73;;;20.40;60.10;;;;;;5071903;28;20124;-67
2021/11/20 04:32:28;;;;;;;4.93;2.15;;;20.40;60.00;;;;;;5070738;28;20109;-67
2021/11/20 04:35:08;;;;;;;4.30;2.33;;;20.40;59.80;;;;;;5070088;28;20035;-67
2021/11/20 04:37:35;;;;;;;4.78;2.50;;;20.40;59.70;;;;;;5070079;28;20028;-67
2021/11/20 04:40:07;;;;;;;8.43;3.80;;;20.40;59.40;;;;;;5067991;28;20403;-67
2021/11/20 04:42:58;;;;;;;8.98;4.20;;;20.40;59.20;;;;;;5045804;28;20048;-67
2021/11/20 04:45:39;;;;;;;7.03;3.65;;;20.40;59.70;;;;;;5070218;28;20036;-67
2021/11/20 04:48:12;;;;;;;6.10;3.33;;;20.40;59.00;;;;;;5080003;28;20071;-67
2021/11/20 04:50:38;;;;;;;4.78;2.75;;;20.40;58.90;;;;;;5072053;28;20021;-67
2021/11/20 04:53:10;;;;;;;6.68;2.33;;;20.40;58.90;;;;;;5069559;28;20044;-67
2021/11/20 04:55:42;;;;;;;5.38;2.35;;;20.40;58.80;;;;;;5069967;28;20106;-67
2021/11/20 04:58:55;;;;;;;2.63;1.80;;;20.40;58.80;;;;;;5068874;28;20557;-67
2021/11/20 05:02:01;;;;;;;2.75;1.50;;;20.40;58.70;;;;;;5070285;28;20025;-67
2021/11/20 05:05:17;;;;;;;2.17;1.02;;;20.40;58.70;;;;;;5050467;28;20033;-67
2021/11/20 05:08:25;;;;;;;2.45;1.45;;;20.40;58.70;;;;;;5054299;28;20038;-67
2021/11/20 05:11:39;;;;;;;3.15;1.17;;;20.40;58.70;;;;;;5047677;28;20029;-67
2021/11/20 05:14:47;;;;;;;6.45;1.45;;;20.40;58.70;;;;;;5047808;28;20060;-67
2021/11/20 05:17:53;;;;;;;26.02;14.93;;;20.50;58.80;;;;;;5015861;28;20521;-66
2021/11/20 05:21:03;;;;;;;18.52;15.07;;;20.50;58.90;;;;;;5030432;28;20036;-68
2021/11/20 05:24:22;;;;;;;17.70;9.95;;;20.50;58.90;;;;;;5011825;28;20588;-66
2021/11/20 05:26:56;;;;;;;9.38;6.70;;;20.50;58.90;;;;;;5016366;28;20042;-66
2021/11/20 05:29:48;;;;;;;7.80;4.90;;;20.50;58.80;;;;;;5006243;28;20045;-66
2021/11/20 05:32:19;;;;;;;9.25;4.25;;;20.60;58.90;;;;;;5011205;28;20030;-68
2021/11/20 05:34:56;;;;;;;7.32;3.33;;;20.60;58.90;;;;;;5028917;28;22006;-66
2021/11/20 05:37:25;;;;;;;11.75;3.35;;;20.60;59.10;;;;;;5010855;28;20042;-67
2021/11/20 05:39:55;;;;;;;6.03;2.67;;;20.60;59.10;;;;;;5010124;28;20484;-66
2021/11/20 05:42:25;;;;;;;7.93;2.67;;;20.70;59.30;;;;;;5005518;28;20389;-64
2021/11/20 05:44:56;;;;;;;5.68;2.13;;;20.70;59.30;;;;;;5030574;28;20431;-66
2021/11/20 05:48:08;;;;;;;2.85;1.92;;;20.70;59.40;;;;;;5010539;28;20045;-67
2021/11/20 05:51:18;;;;;;;3.42;1.73;;;20.80;59.50;;;;;;5011838;28;20567;-67
2021/11/20 05:54:31;;;;;;;8.73;2.30;;;20.80;59.40;;;;;;5006923;28;20034;-77
2021/11/20 05:57:42;;;;;;;5.55;1.48;;;20.80;59.40;;;;;;5018603;28;20040;-77
2021/11/20 06:00:48;;;;;;;4.80;1.40;;;20.90;59.40;;;;;;5013381;28;20033;-79
2021/11/20 06:03:34;;;;;;;;;;;20.90;59.40;;;;;;5012059;28;20033;-80
2021/11/20 06:06:40;;;;;;;3.78;1.75;;;21.00;59.30;;;;;;5011949;28;19910;-76
2021/11/20 06:09:27;;;;;;;;;;;21.00;59.30;;;;;;5070320;28;20428;-75
2021/11/20 06:12:33;;;;;;;5.03;2.60;;;21.10;59.30;;;;;;5067946;28;19908;-76
2021/11/20 06:15:39;;;;;;;4.70;2.78;;;21.10;59.20;;;;;;5070417;28;20040;-75
2021/11/20 06:18:46;;;;;;;7.38;3.15;;;21.20;59.20;;;;;;5068097;28;20037;-75
2021/11/20 06:21:52;;;;;;;3.13;2.10;;;21.20;59.10;;;;;;5065333;28;20036;-74
2021/11/20 06:24:58;;;;;;;3.95;2.00;;;21.30;58.90;;;;;;5070317;28;20028;-72
2021/11/20 06:28:05;;;;;;;4.70;2.13;;;21.30;58.80;;;;;;5067793;28;20051;-74
2021/11/20 06:31:11;;;;;;;4.30;1.40;;;21.40;58.60;;;;;;5066648;28;20020;-76
2021/11/20 06:34:18;;;;;;;4.13;2.47;;;21.40;58.40;;;;;;5067881;28;20515;-75
2021/11/20 06:37:24;;;;;;;8.60;3.17;;;21.40;57.70;;;;;;5070235;28;20071;-74
2021/11/20 06:40:30;;;;;;;8.85;3.05;;;21.50;57.50;;;;;;5074580;28;20025;-75
2021/11/20 06:43:36;;;;;;;21.88;3.47;;;21.50;57.30;;;;;;5069831;28;20025;-72
2021/11/20 06:46:42;;;;;;;27.20;3.33;;;21.60;57.10;;;;;;5067802;28;20392;-74
2021/11/20 06:49:48;;;;;;;20.98;3.88;;;21.60;57.10;;;;;;5076511;28;20038;-73
2021/11/20 06:52:55;;;;;;;17.13;2.72;;;21.70;56.90;;;;;;5071627;28;20056;-74
2021/11/20 06:56:01;;;;;;;29.15;6.05;;;21.70;56.60;;;;;;5071738;28;20066;-76
2021/11/20 07:02:31;;;;;;;33.88;6.15;;;21.80;56.60;;;;;;5076152;28;20020;-74
2021/11/20 07:05:39;;;;;;;24.45;4.20;;;21.80;56.70;;;;;;5067767;28;20024;-71
2021/11/20 07:08:46;;;;;;;24.90;4.85;;;21.90;57.00;;;;;;5074312;28;20025;-73
2021/11/20 07:11:53;;;;;;;15.45;3.50;;;22.00;57.00;;;;;;5070269;28;20083;-69
2021/11/20 07:14:20;;;;;;;19.60;2.10;;;22.00;57.00;;;;;;5072828;28;20020;-69
2021/11/20 07:16:47;;;;;;;9.05;1.77;;;22.00;56.90;;;;;;5073847;28;20044;-70
2021/11/20 07:19:14;;;;;;;8.55;1.95;;;22.10;57.10;;;;;;5073981;28;20017;-68
2021/11/20 07:21:40;;;;;;;11.02;2.10;;;22.10;57.20;;;;;;5076336;28;20024;-73
2021/11/20 07:24:12;;;;;;;14.45;10.68;;;22.10;57.00;;;;;;5074787;28;20162;-79
2021/11/20 07:26:40;;;;;;;21.35;14.70;;;22.20;56.80;;;;;;5075294;28;20025;-77
2021/11/20 07:29:07;;;;;;;19.52;11.45;;;22.20;56.40;;;;;;5077239;28;20017;-74
2021/11/20 07:31:34;;;;;;;12.05;6.85;;;22.30;56.30;;;;;;5073061;28;20017;-74
2021/11/20 07:34:00;;;;;;;8.18;5.40;;;22.30;56.20;;;;;;5074067;28;20016;-75
2021/11/20 07:36:27;;;;;;;8.68;4.97;;;22.30;56.10;;;;;;5077191;28;20032;-76
2021/11/20 07:38:58;;;;;;;11.18;3.95;;;22.40;56.00;;;;;;5075784;28;20092;-75
2021/11/20 07:41:27;;;;;;;4.57;3.70;;;22.40;56.00;;;;;;5072605;28;20013;-76
2021/11/20 07:43:53;;;;;;;7.90;3.03;;;22.50;55.90;;;;;;5074686;28;20028;-77
2021/11/20 07:46:20;;;;;;;4.07;2.65;;;22.50;55.80;;;;;;5073688;28;20109;-75
2021/11/20 07:48:48;;;;;;;8.82;2.42;;;22.50;54.30;;;;;;5075482;28;20414;-76
2021/11/20 07:51:17;;;;;;;5.97;2.67;;;22.60;54.40;;;;;;5072863;28;20031;-77
2021/11/20 07:53:46;;;;;;;8.32;2.45;;;22.60;54.40;;;;;;5073895;28;20598;-73
2021/11/20 07:56:14;;;;;;;9.40;2.92;;;22.70;53.90;;;;;;5076033;28;20127;-73
2021/11/20 07:58:41;;;;;;;8.57;1.95;;;22.70;53.50;;;;;;5074141;28;20406;-74
2021/11/20 08:01:09;;;;;;;2.78;1.38;;;22.80;53.20;;;;;;5075076;28;20104;-73
2021/11/20 08:03:36;;;;;;;2.85;1.50;;;22.80;53.00;;;;;;5071519;28;20367;-74
2021/11/20 08:06:03;;;;;;;4.38;1.25;;;22.90;52.50;;;;;;5074768;28;20025;-76
2021/11/20 08:08:31;;;;;;;4.63;2.20;;;22.90;52.00;;;;;;5075373;28;20116;-76
2021/11/20 08:10:58;;;;;;;7.60;1.70;;;23.00;51.90;;;;;;5074722;28;20032;-75
2021/11/20 08:13:24;;;;;;;5.20;1.52;;;23.00;51.90;;;;;;5071806;28;20042;-71
2021/11/20 08:15:51;;;;;;;5.68;1.88;;;23.10;51.70;;;;;;5073751;28;20079;-70
2021/11/20 08:18:17;;;;;;;2.15;1.35;;;23.10;51.70;;;;;;5073447;28;20422;-72
2021/11/20 08:20:46;;;;;;;3.05;1.42;;;23.20;51.30;;;;;;5072395;28;20144;-71
2021/11/20 08:23:13;;;;;;;4.53;1.20;;;23.20;50.80;;;;;;5073812;28;20029;-71
2021/11/20 08:25:44;;;;;;;3.65;1.08;;;23.30;50.10;;;;;;5071464;28;20032;-72
2021/11/20 08:28:15;;;;;;;2.00;0.90;;;23.40;49.50;;;;;;5076044;28;20024;-70
2021/11/20 08:30:42;;;;;;;9.15;2.03;;;23.40;48.80;;;;;;5073457;28;20017;-71
2021/11/20 08:33:10;;;;;;;4.72;1.20;;;23.40;48.30;;;;;;5072396;28;20056;-70
2021/11/20 08:35:37;;;;;;;6.25;1.30;;;23.50;47.80;;;;;;5072151;28;20019;-71
2021/11/20 08:38:07;;;;;;;3.28;1.08;;;23.60;47.50;;;;;;5071576;28;20037;-70
2021/11/20 08:40:37;;;;;;;7.35;1.00;;;23.60;46.90;;;;;;5074329;28;20016;-71
2021/11/20 08:43:43;;;;;;;5.70;1.42;;;23.70;46.20;;;;;;5073583;28;20384;-71
2021/11/20 08:46:49;;;;;;;4.80;0.68;;;23.70;46.00;;;;;;5075711;28;20017;-69
2021/11/20 08:50:12;;;;;;;3.50;0.77;;;23.80;45.70;;;;;;5075038;28;20107;-75
2021/11/20 08:52:40;;;;;;;1.17;0.70;;;23.90;45.50;;;;;;5071035;28;20028;-70
2021/11/20 08:55:08;;;;;;;1.75;0.90;;;24.00;45.40;;;;;;5071779;28;20356;-71
2021/11/20 08:57:35;;;;;;;2.33;1.13;;;24.10;45.20;;;;;;5074955;28;20114;-72
2021/11/20 09:00:06;;;;;;;4.72;1.10;;;24.10;45.30;;;;;;5075067;28;20115;-71
2021/11/20 09:02:43;;;;;;;3.53;0.90;;;24.20;47.10;;;;;;5070458;28;20020;-71
2021/11/20 09:05:48;;;;;;;6.70;1.15;;;24.30;48.30;;;;;;5072031;28;20371;-71
2021/11/20 09:08:25;;;;;;;4.38;1.52;;;24.30;48.60;;;;;;5029149;28;20547;-71
2021/11/20 09:11:20;;;;;;;2.58;1.40;;;24.30;49.30;;;;;;5068673;28;20032;-71
2021/11/20 09:14:10;;;;;;;2.95;1.10;;;24.40;48.90;;;;;;5069082;28;20048;-71
2021/11/20 09:16:38;;;;;;;6.38;0.98;;;24.40;48.20;;;;;;5070570;28;20024;-70
2021/11/20 09:19:07;;;;;;;6.18;1.13;;;24.40;48.90;;;;;;5075010;28;20548;-72
2021/11/20 09:21:34;;;;;;;7.38;1.27;;;24.50;50.30;;;;;;5068482;28;20379;-73
2021/11/20 09:24:01;;;;;;;8.43;1.52;;;24.50;51.10;;;;;;5069936;28;20095;-72
2021/11/20 09:26:30;;;;;;;9.00;3.00;;;24.60;52.00;;;;;;5071125;28;20044;-70
2021/11/20 09:28:59;;;;;;;8.07;5.10;;;24.60;52.50;;;;;;5070956;28;20012;-71
2021/11/20 09:32:06;;;;;;;10.15;3.13;;;24.60;53.00;;;;;;5070318;28;20533;-71
2021/11/20 09:35:13;;;;;;;6.65;3.20;;;24.70;53.50;;;;;;5069866;28;20024;-70
2021/11/20 09:37:59;;;;;;;;;;;24.70;53.20;;;;;;5071393;28;20067;-72
2021/11/20 09:40:27;;;;;;;;;;;24.80;53.70;;;;;;5072762;28;20275;-76
2021/11/20 09:43:39;;;;;;;9.40;2.90;;;24.80;54.70;;;;;;5068336;28;19917;-73
2021/11/20 09:46:45;;;;;;;4.32;1.95;;;24.90;53.90;;;;;;5067926;28;20056;-75
2021/11/20 09:49:58;;;;;;;7.80;2.92;;;24.90;54.00;;;;;;5069321;28;20021;-72
2021/11/20 09:53:07;;;;;;;8.90;2.08;;;24.90;53.80;;;;;;5067314;28;20459;-72
2021/11/20 09:56:15;;;;;;;3.67;2.30;;;25.00;53.80;;;;;;5068178;28;20028;-72
2021/11/20 09:59:21;;;;;;;9.32;2.35;;;25.00;53.30;;;;;;5068134;28;20109;-72
2021/11/20 10:01:47;;;;;;;;;;;25.10;52.90;;;;;;5069527;28;20115;-72
2021/11/20 10:04:53;;;;;;;7.43;3.20;;;25.10;52.60;;;;;;5068078;28;19911;-72
2021/11/20 10:07:22;;;;;;;;;;;25.20;52.70;;;;;;5066418;28;20053;-73
2021/11/20 10:10:15;;;;;;;6.72;1.60;;;25.20;52.50;;;;;;5065850;28;19994;-72
2021/11/20 10:13:27;;;;;;;3.92;1.70;;;25.20;52.50;;;;;;5069053;28;20017;-71
2021/11/20 10:16:43;;;;;;;5.82;1.35;;;25.30;52.30;;;;;;5067676;28;20555;-71
2021/11/20 10:19:49;;;;;;;4.60;2.15;;;25.40;52.30;;;;;;5067622;28;20032;-73
2021/11/20 10:22:15;;;;;;;;;;;25.40;52.30;;;;;;5067760;28;20077;-71
2021/11/20 10:25:13;;;;;;;3.60;1.55;;;25.50;52.30;;;;;;5065451;28;19981;-71
2021/11/20 10:28:24;;;;;;;10.50;2.10;;;25.50;52.40;;;;;;5063780;28;20698;-72
2021/11/20 10:31:37;;;;;;;5.90;1.55;;;25.50;52.70;;;;;;5065273;28;20395;-71
2021/11/20 10:34:25;;;;;;;12.18;2.63;;;25.60;52.90;;;;;;5065485;28;20059;-72
2021/11/20 10:37:38;;;;;;;7.07;1.90;;;25.60;52.70;;;;;;5067685;28;20423;-71
2021/11/20 10:40:59;;;;;;;6.68;1.90;;;25.70;52.50;;;;;;5068261;28;20032;-71
2021/11/20 10:44:33;;;;;;;9.98;1.80;;;25.70;52.50;;;;;;5069438;28;20442;-72
2021/11/20 10:47:21;;;;;;;6.13;1.45;;;25.80;52.80;;;;;;5077787;28;20525;-73
2021/11/20 10:50:20;;;;;;;5.70;2.03;;;25.80;52.80;;;;;;5075978;28;20036;-73
2021/11/20 10:53:27;;;;;;;4.82;1.70;;;25.90;52.80;;;;;;5074707;28;20024;-72
2021/11/20 10:56:12;;;;;;;7.60;1.52;;;25.90;53.10;;;;;;5061334;28;20036;-71
2021/11/20 10:59:20;;;;;;;4.45;1.58;;;25.90;53.10;;;;;;5072645;28;20036;-71
2021/11/20 11:02:02;;;;;;;5.70;2.38;;;26.00;53.30;;;;;;5072820;28;20135;-72
2021/11/20 11:05:05;;;;;;;4.07;1.38;;;26.00;53.20;;;;;;5070823;28;20020;-72
2021/11/20 11:08:11;;;;;;;6.75;1.73;;;26.00;53.20;;;;;;5075507;28;20021;-74
2021/11/20 11:11:21;;;;;;;3.38;1.50;;;26.00;53.30;;;;;;5072430;28;20035;-72
2021/11/20 11:14:02;;;;;;;4.65;2.33;;;26.00;53.30;;;;;;5065540;28;20468;-72
2021/11/20 11:16:55;;;;;;;4.90;1.75;;;26.10;53.50;;;;;;5073921;28;20033;-71
2021/11/20 11:19:34;;;;;;;9.40;2.25;;;26.10;53.40;;;;;;5069592;28;20032;-71
2021/11/20 11:22:03;;;;;;;4.75;1.42;;;26.10;53.50;;;;;;5072339;28;20017;-74
2021/11/20 11:24:57;;;;;;;8.68;2.58;;;26.20;53.60;;;;;;5075903;28;20029;-72
2021/11/20 11:27:49;;;;;;;3.55;1.55;;;26.20;53.40;;;;;;5070541;28;20040;-73
2021/11/20 11:30:33;;;;;;;7.90;2.15;;;26.20;53.50;;;;;;5070116;28;20481;-74
2021/11/20 11:33:00;;;;;;;6.30;1.38;;;26.20;53.60;;;;;;5076628;28;20032;-73
2021/11/20 11:35:47;;;;;;;8.40;2.75;;;26.20;53.70;;;;;;5071637;28;20039;-70
2021/11/20 11:38:20;;;;;;;4.43;1.23;;;26.30;53.80;;;;;;5070923;28;20037;-73
2021/11/20 11:40:46;;;;;;;7.60;2.45;;;26.30;53.40;;;;;;5068401;28;20017;-76
2021/11/20 11:43:37;;;;;;;6.40;1.58;;;26.30;53.10;;;;;;5071168;28;20430;-76
2021/11/20 11:46:22;;;;;;;8.10;1.55;;;26.40;53.10;;;;;;5078742;28;20017;-79
2021/11/20 11:48:48;;;;;;;;;;;26.40;53.00;;;;;;5074861;28;20113;-77
2021/11/20 11:51:35;;;;;;;6.60;1.63;;;26.40;52.70;;;;;;5074911;28;19911;-79
2021/11/20 11:54:36;;;;;;;11.65;1.70;;;26.40;52.70;;;;;;5079707;28;20403;-78
2021/11/20 11:57:07;;;;;;;4.60;1.40;;;26.40;52.70;;;;;;5070847;28;20033;-76
2021/11/20 11:59:37;;;;;;;6.00;1.80;;;26.50;52.60;;;;;;5077033;28;20031;-78
2021/11/20 12:02:42;;;;;;;4.53;1.77;;;26.50;52.60;;;;;;5075091;28;20512;-80
2021/11/20 12:05:33;;;;;;;6.82;1.67;;;26.50;52.70;;;;;;5079331;28;20031;-87
2021/11/20 12:08:21;;;;;;;7.57;2.00;;;26.60;52.60;;;;;;5078174;28;20029;-74
2021/11/20 12:11:11;;;;;;;5.38;1.60;;;26.60;52.70;;;;;;5077890;28;20585;-76
2021/11/20 12:13:42;;;;;;;10.02;1.40;;;26.70;52.90;;;;;;5080031;28;20028;-80
2021/11/20 12:16:36;;;;;;;6.25;2.17;;;26.70;52.90;;;;;;5073022;28;20025;-81
2021/11/20 12:19:25;;;;;;;5.55;2.13;;;26.70;52.90;;;;;;5051254;28;20112;-72
2021/11/20 12:22:20;;;;;;;6.32;1.50;;;26.70;52.80;;;;;;5071434;28;20146;-69
2021/11/20 12:24:59;;;;;;;7.40;1.58;;;26.70;53.00;;;;;;5078540;28;20116;-81
2021/11/20 12:27:25;;;;;;;6.25;1.67;;;26.80;53.20;;;;;;5077272;28;20040;-81
2021/11/20 12:30:10;;;;;;;4.25;2.08;;;26.80;53.20;;;;;;5080445;28;20043;-80
2021/11/20 12:32:36;;;;;;;;;;;26.80;52.80;;;;;;5074697;28;20108;-80
2021/11/20 12:35:22;;;;;;;6.55;1.67;;;26.90;52.90;;;;;;5072225;28;19905;-81
2021/11/20 12:38:04;;;;;;;4.57;1.50;;;26.90;52.60;;;;;;5079637;28;20032;-81
2021/11/20 12:41:31;;;;;;;3.83;1.65;;;26.90;52.60;;;;;;5071795;28;20495;-80
2021/11/20 12:44:12;;;;;;;4.85;1.75;;;26.90;52.60;;;;;;5004412;28;20038;-73
2021/11/20 12:47:03;;;;;;;6.90;1.70;;;26.90;52.60;;;;;;5003652;28;20033;-82
2021/11/20 12:49:56;;;;;;;8.80;1.73;;;26.90;52.80;;;;;;5059866;28;20028;-86
2021/11/20 12:52:51;;;;;;;5.65;1.95;;;26.90;52.70;;;;;;5066076;28;20016;-86
2021/11/20 12:55:34;;;;;;;9.27;1.90;;;26.90;52.80;;;;;;5073175;28;20484;-82
2021/11/20 12:58:16;;;;;;;7.10;2.20;;;26.90;52.90;;;;;;5074154;28;20056;-84
2021/11/20 13:00:51;;;;;;;4.97;1.95;;;26.90;53.00;;;;;;5072586;28;20070;-88
2021/11/20 13:03:42;;;;;;;15.38;2.10;;;26.90;53.00;;;;;;5072715;28;20019;-84
2021/11/20 13:06:24;;;;;;;5.55;1.60;;;27.00;53.10;;;;;;5071948;28;20074;-73
2021/11/20 13:09:07;;;;;;;11.15;2.95;;;26.90;52.90;;;;;;5075053;28;20017;-76
2021/11/20 13:11:37;;;;;;;5.95;1.63;;;26.90;52.90;;;;;;5075818;28;20028;-77
2021/11/20 13:14:26;;;;;;;8.65;2.08;;;26.90;52.80;;;;;;5075362;28;20012;-85
2021/11/20 13:17:07;;;;;;;5.55;1.73;;;26.90;52.90;;;;;;5070448;28;20045;-78
2021/11/20 13:19:49;;;;;;;6.72;2.60;;;26.90;53.00;;;;;;5069797;28;20077;-77
2021/11/20 13:22:22;;;;;;;9.80;3.70;;;26.90;52.70;;;;;;5071366;28;20059;-75
2021/11/20 13:24:51;;;;;;;15.88;5.38;;;27.00;52.90;;;;;;5071199;28;20375;-74
2021/11/20 13:27:54;;;;;;;7.43;2.63;;;27.00;53.10;;;;;;5069449;28;20057;-77
2021/11/20 13:30:25;;;;;;;12.23;4.25;;;27.00;53.10;;;;;;5006036;28;20033;-75
2021/11/20 13:32:59;;;;;;;12.70;6.68;;;27.00;53.20;;;;;;5060500;28;20702;-72
2021/11/20 13:35:31;;;;;;;13.10;4.75;;;27.00;53.30;;;;;;5069228;28;20140;-76
2021/11/20 13:38:10;;;;;;;9.30;3.72;;;27.00;53.80;;;;;;5068866;28;20062;-75
2021/11/20 13:40:44;;;;;;;11.55;5.07;;;26.90;53.10;;;;;;5067609;28;20099;-72
2021/11/20 13:43:16;;;;;;;20.98;6.88;;;26.90;53.30;;;;;;5068683;28;20463;-73
2021/11/20 13:45:44;;;;;;;8.93;5.53;;;26.90;53.60;;;;;;5068910;28;20017;-81
2021/11/20 13:48:12;;;;;;;9.23;4.95;;;26.80;53.70;;;;;;5072069;28;20033;-76
2021/11/20 13:50:44;;;;;;;12.80;4.85;;;26.90;54.00;;;;;;5071069;28;20013;-74
2021/11/20 13:53:24;;;;;;;15.63;5.18;;;26.90;54.20;;;;;;5068306;28;20008;-73
2021/11/20 13:55:54;;;;;;;12.27;5.28;;;26.90;54.00;;;;;;5067957;28;20025;-77
2021/11/20 13:58:26;;;;;;;15.98;4.35;;;26.90;54.00;;;;;;5069764;28;20461;-79
2021/11/20 14:00:56;;;;;;;9.52;3.72;;;26.90;54.00;;;;;;5067561;28;20375;-77
2021/11/20 14:03:24;;;;;;;9.27;4.40;;;26.80;54.00;;;;;;5067270;28;20016;-78
2021/11/20 14:05:51;;;;;;;12.68;4.28;;;26.80;54.20;;;;;;5066211;28;20024;-73
2021/11/20 14:08:18;;;;;;;10.23;4.07;;;26.80;54.40;;;;;;5070776;28;20517;-75
2021/11/20 14:11:07;;;;;;;12.45;3.75;;;26.80;54.50;;;;;;5070037;28;20075;-75
2021/11/20 14:13:35;;;;;;;9.45;3.05;;;26.80;54.70;;;;;;5069188;28;20406;-77
2021/11/20 14:16:05;;;;;;;16.55;5.45;;;26.70;54.80;;;;;;5071259;28;20060;-76
2021/11/20 14:18:47;;;;;;;15.38;7.35;;;26.80;55.50;;;;;;5069909;28;20027;-75
2021/11/20 14:21:18;;;;;;;17.77;7.85;;;26.80;56.10;;;;;;5071613;28;20021;-75
2021/11/20 14:23:55;;;;;;;18.33;9.13;;;26.80;56.40;;;;;;5072256;28;20099;-74
2021/11/20 14:26:22;;;;;;;20.80;5.82;;;26.80;56.30;;;;;;5069681;28;20132;-74
2021/11/20 14:28:49;;;;;;;16.75;5.50;;;26.80;56.40;;;;;;5074261;28;20036;-73
2021/11/20 14:31:22;;;;;;;15.60;5.65;;;26.80;56.40;;;;;;5073896;28;20021;-75
2021/11/20 14:34:05;;;;;;;12.73;4.88;;;26.70;56.90;;;;;;5069181;28;20036;-78
2021/11/20 14:36:41;;;;;;;16.67;4.35;;;26.70;56.90;;;;;;5072175;28;20054;-76
2021/11/20 14:39:12;;;;;;;9.25;5.38;;;26.70;57.00;;;;;;5069113;28;20514;-78
2021/11/20 14:41:41;;;;;;;11.95;4.25;;;26.70;56.90;;;;;;5072246;28;20080;-78
2021/11/20 14:44:09;;;;;;;20.17;7.43;;;26.70;56.80;;;;;;5073990;28;20108;-78
2021/11/20 14:46:36;;;;;;;17.50;8.20;;;26.70;57.00;;;;;;5070292;28;20013;-73